createdAt,value
2022-12-25T00:00:28.474Z,72.50
2022-12-25T00:05:31.081Z,78.97
2022-12-25T00:10:37.474Z,77.07
2022-12-25T00:15:43.729Z,74.10
2022-12-25T00:20:46.199Z,85.95
2022-12-25T00:25:48.647Z,77.30
2022-12-25T00:30:53.616Z,80.93
2022-12-25T00:35:59.581Z,85.68
2022-12-25T00:41:05.572Z,77.45
2022-12-25T00:46:10.503Z,66.28
2022-12-25T00:51:13.110Z,75.78
2022-12-25T00:56:15.670Z,82.10
2022-12-25T01:01:19.600Z,77.82
2022-12-25T01:06:22.175Z,75.72
2022-12-25T01:11:24.636Z,73.68
2022-12-25T01:16:28.758Z,86.25
2022-12-25T01:21:31.303Z,85.90
2022-12-25T01:26:33.809Z,79.55
2022-12-25T01:31:37.759Z,93.60
2022-12-25T01:36:40.222Z,70.45
2022-12-25T01:41:42.812Z,82.28
2022-12-25T01:46:46.718Z,63.17
2022-12-25T01:51:50.723Z,73.97
2022-12-25T01:56:54.740Z,78.75
2022-12-25T02:01:59.298Z,71.40
2022-12-25T02:07:01.993Z,70.20
2022-12-25T02:12:06.037Z,56.83
2022-12-25T02:17:13.319Z,50.63
2022-12-25T02:22:21.370Z,56.10
2022-12-25T02:27:27.638Z,55.13
2022-12-25T02:32:33.307Z,53.65
2022-12-25T02:37:38.502Z,52.40
2022-12-25T02:43:01.775Z,57.13
2022-12-25T02:48:23.940Z,52.00
2022-12-25T02:53:44.688Z,54.70
2022-12-25T02:59:06.496Z,51.30
2022-12-25T03:04:29.649Z,54.78
2022-12-25T03:09:52.951Z,42.50
2022-12-25T03:15:13.336Z,49.50
2022-12-25T03:20:34.806Z,53.50
2022-12-25T03:25:54.514Z,51.47
2022-12-25T03:31:13.474Z,53.35
2022-12-25T03:36:20.696Z,45.92
2022-12-25T03:41:44.421Z,53.50
2022-12-25T03:47:05.658Z,45.07
2022-12-25T03:52:29.138Z,50.42
2022-12-25T03:57:52.526Z,46.08
2022-12-25T04:03:14.601Z,52.08
2022-12-25T04:08:36.081Z,55.63
2022-12-25T04:13:55.925Z,39.92
2022-12-25T04:19:24.119Z,46.30
2022-12-25T04:24:45.427Z,51.05
2022-12-25T04:30:05.232Z,47.10
2022-12-25T04:35:25.563Z,36.83
2022-12-25T04:40:29.436Z,39.20
2022-12-25T04:45:32.844Z,34.13
2022-12-25T04:50:35.251Z,41.20
2022-12-25T04:55:39.133Z,41.53
2022-12-25T05:00:42.174Z,33.03
2022-12-25T05:05:44.584Z,37.20
2022-12-25T05:10:48.433Z,41.47
2022-12-25T05:15:50.983Z,35.80
2022-12-25T05:20:54.357Z,35.90
2022-12-25T05:25:58.300Z,36.78
2022-12-25T05:31:00.793Z,38.58
2022-12-25T05:36:04.107Z,35.88
2022-12-25T05:41:08.044Z,36.03
2022-12-25T05:46:11.252Z,38.00
2022-12-25T05:51:14.731Z,35.65
2022-12-25T06:01:21.806Z,32.53
2022-12-25T06:06:24.495Z,41.35
2022-12-25T06:11:27.961Z,38.97
2022-12-25T06:16:37.850Z,32.25
2022-12-25T06:21:40.828Z,37.70
2022-12-25T06:26:43.327Z,37.70
2022-12-25T06:31:47.193Z,35.97
2022-12-25T06:36:49.763Z,32.65
2022-12-25T06:41:52.268Z,32.93
2022-12-25T06:46:56.037Z,31.05
2022-12-25T06:51:58.640Z,30.88
2022-12-25T06:57:01.135Z,29.20
2022-12-25T07:02:05.155Z,31.55
2022-12-25T07:07:09.152Z,30.60
2022-12-25T07:12:15.599Z,28.70
2022-12-25T07:17:19.870Z,29.08
2022-12-25T07:22:22.375Z,35.03
2022-12-25T07:27:24.908Z,28.77
2022-12-25T07:32:30.799Z,29.65
2022-12-25T07:37:33.216Z,48.03
2022-12-25T07:42:35.698Z,33.88
2022-12-25T07:47:39.699Z,28.90
2022-12-25T07:52:43.822Z,28.55
2022-12-25T07:57:47.393Z,28.38
2022-12-25T08:02:51.503Z,25.38
2022-12-25T08:07:57.680Z,27.27
2022-12-25T08:13:00.765Z,29.58
2022-12-25T08:18:04.714Z,27.17
2022-12-25T08:23:07.211Z,27.73
2022-12-25T08:28:09.726Z,21.42
2022-12-25T08:33:13.499Z,25.33
2022-12-25T08:38:15.973Z,23.95
2022-12-25T08:43:18.457Z,25.55
2022-12-25T08:48:22.365Z,28.60
2022-12-25T08:53:25.110Z,23.63
2022-12-25T08:58:27.827Z,26.80
2022-12-25T09:03:33.120Z,27.67
2022-12-25T09:08:36.277Z,24.92
2022-12-25T09:13:39.285Z,29.83
2022-12-25T09:18:43.415Z,22.97
2022-12-25T09:23:46.347Z,23.60
2022-12-25T09:28:52.451Z,22.35
2022-12-25T09:33:58.625Z,22.33
2022-12-25T09:39:01.629Z,29.02
2022-12-25T09:44:06.382Z,21.77
2022-12-25T09:49:15.043Z,20.27
2022-12-25T09:54:20.697Z,22.83
2022-12-25T09:59:25.563Z,25.10
2022-12-25T10:04:40.647Z,23.55
2022-12-25T10:09:52.723Z,26.15
2022-12-25T10:15:02.453Z,22.20
2022-12-25T10:20:12.762Z,22.83
2022-12-25T10:25:16.581Z,22.17
2022-12-25T10:30:20.350Z,22.05
2022-12-25T10:35:25.397Z,22.65
2022-12-25T10:40:31.427Z,14.75
2022-12-25T10:45:43.351Z,24.70
2022-12-25T10:50:47.128Z,19.55
2022-12-25T10:55:56.665Z,20.02
2022-12-25T11:01:00.148Z,20.02
2022-12-25T11:11:07.016Z,21.45
2022-12-25T11:16:10.667Z,27.98
2022-12-25T11:21:17.577Z,28.05
2022-12-25T11:26:21.502Z,20.42
2022-12-25T11:31:37.644Z,17.80
2022-12-25T11:36:44.245Z,17.52
2022-12-25T11:41:48.664Z,21.50
2022-12-25T11:46:52.205Z,21.48
2022-12-25T11:51:56.435Z,22.80
2022-12-25T11:57:04.814Z,16.75
2022-12-25T12:02:26.016Z,19.23
2022-12-25T12:07:30.567Z,18.73
2022-12-25T12:12:36.650Z,24.35
2022-12-25T12:17:40.207Z,18.92
2022-12-25T12:22:49.939Z,16.48
2022-12-25T12:28:02.919Z,22.38
2022-12-25T12:33:08.370Z,15.95
2022-12-25T12:38:13.561Z,18.27
2022-12-25T12:43:28.257Z,19.20
2022-12-25T12:48:31.772Z,17.58
2022-12-25T12:53:35.011Z,23.75
2022-12-25T12:58:45.328Z,17.05
2022-12-25T13:04:02.775Z,25.52
2022-12-25T13:09:10.511Z,24.00
2022-12-25T13:14:36.115Z,31.02
2022-12-25T13:20:00.422Z,16.95
2022-12-25T13:25:11.230Z,21.98
2022-12-25T13:30:14.728Z,21.60
2022-12-25T13:35:18.814Z,28.85
2022-12-25T13:40:29.263Z,24.05
2022-12-25T13:45:34.031Z,27.05
2022-12-25T13:50:38.328Z,33.72
2022-12-25T13:55:42.948Z,27.40
2022-12-25T14:01:06.197Z,27.63
2022-12-25T14:06:17.646Z,29.23
2022-12-25T14:11:22.647Z,33.60
2022-12-25T14:16:26.095Z,34.90
2022-12-25T14:26:33.495Z,38.08
2022-12-25T14:31:38.434Z,38.90
2022-12-25T14:36:41.121Z,44.30
2022-12-25T14:41:53.110Z,38.97
2022-12-25T14:47:05.282Z,42.85
2022-12-25T14:52:11.451Z,56.47
2022-12-25T14:57:23.720Z,54.10
2022-12-25T15:02:26.716Z,56.60
2022-12-25T15:07:30.521Z,58.80
2022-12-25T15:12:34.399Z,55.35
2022-12-25T15:17:38.201Z,89.65
2022-12-25T15:23:17.856Z,72.90
2022-12-25T15:28:10.844Z,97.38
2022-12-25T15:33:16.074Z,76.05
2022-12-25T15:38:20.199Z,61.00
2022-12-25T15:43:41.026Z,62.58
2022-12-25T15:48:45.125Z,84.85
2022-12-25T15:53:47.697Z,132.05
2022-12-25T15:58:51.927Z,108.67
2022-12-25T16:04:15.898Z,94.78
2022-12-25T16:09:20.123Z,98.45
2022-12-25T16:14:25.278Z,102.88
2022-12-25T16:19:27.905Z,103.85
2022-12-25T16:24:30.442Z,78.57
2022-12-25T16:29:37.395Z,72.32
2022-12-25T16:34:40.787Z,75.53
2022-12-25T16:44:47.119Z,68.78
2022-12-25T16:49:49.689Z,86.13
2022-12-25T16:54:52.313Z,83.93
2022-12-25T16:59:56.503Z,121.37
2022-12-25T17:05:00.477Z,106.60
2022-12-25T17:10:03.346Z,108.45
2022-12-25T17:15:08.789Z,130.30
2022-12-25T17:20:11.950Z,115.70
2022-12-25T17:25:14.658Z,106.60
2022-12-25T17:30:20.226Z,105.27
2022-12-25T17:35:24.548Z,117.07
2022-12-25T17:40:29.519Z,136.13
2022-12-25T17:45:32.607Z,131.10
2022-12-25T17:50:43.937Z,120.10
2022-12-25T17:56:08.345Z,117.88
2022-12-25T18:06:16.025Z,156.50
2022-12-25T18:11:19.761Z,152.20
2022-12-25T18:16:23.831Z,125.45
2022-12-25T18:21:28.310Z,147.45
2022-12-25T18:26:30.917Z,137.98
2022-12-25T18:31:33.915Z,115.37
2022-12-25T18:36:38.036Z,158.40
2022-12-25T18:42:01.216Z,169.60
2022-12-25T18:47:04.305Z,236.20
2022-12-25T18:52:49.304Z,187.38
2022-12-25T18:57:33.517Z,294.65
2022-12-25T19:02:36.189Z,318.00
2022-12-25T19:07:40.181Z,232.57
2022-12-25T19:12:42.820Z,334.88
2022-12-25T19:17:45.523Z,438.93
2022-12-25T19:22:50.218Z,246.83
2022-12-25T19:27:52.889Z,224.70
2022-12-25T19:32:55.442Z,322.80
2022-12-25T19:37:59.443Z,199.33
2022-12-25T19:43:02.109Z,283.83
2022-12-25T19:48:05.039Z,214.23
2022-12-25T19:53:09.319Z,204.82
2022-12-25T19:58:12.066Z,336.42
2022-12-25T20:03:15.070Z,213.37
2022-12-25T20:08:19.696Z,238.60
2022-12-25T20:13:22.723Z,163.95
2022-12-25T20:18:27.543Z,239.15
2022-12-25T20:23:31.528Z,350.73
2022-12-25T20:28:35.003Z,273.50
2022-12-25T20:38:41.888Z,104.40
2022-12-25T20:43:45.738Z,185.18
2022-12-25T20:48:48.506Z,160.40
2022-12-25T20:53:53.079Z,291.73
2022-12-25T20:58:55.872Z,230.10
2022-12-25T21:04:00.023Z,217.52
2022-12-25T21:09:06.434Z,269.67
2022-12-25T21:14:09.215Z,186.13
2022-12-25T21:19:12.416Z,173.82
2022-12-25T21:24:16.392Z,174.90
2022-12-25T21:29:28.600Z,192.77
2022-12-25T21:34:31.635Z,302.30
2022-12-25T21:39:36.490Z,145.35
2022-12-25T21:44:39.167Z,204.07
2022-12-25T21:49:59.289Z,298.93
2022-12-25T21:55:03.368Z,276.52
2022-12-25T22:00:08.621Z,165.27
2022-12-25T22:05:32.621Z,194.65
2022-12-25T22:10:38.203Z,195.40
2022-12-25T22:15:59.806Z,169.60
2022-12-25T22:21:03.613Z,114.53
2022-12-25T22:26:07.881Z,94.75
2022-12-25T22:31:10.544Z,104.72
2022-12-25T22:36:13.237Z,96.93
2022-12-25T22:41:17.252Z,87.13
2022-12-25T22:46:19.948Z,89.05
2022-12-25T22:51:22.815Z,82.53
2022-12-25T22:56:26.963Z,94.37
2022-12-25T23:01:29.777Z,71.40
2022-12-25T23:06:32.825Z,74.00
2022-12-25T23:11:37.191Z,69.93
2022-12-25T23:16:41.175Z,80.53
2022-12-25T23:22:01.634Z,62.90
2022-12-25T23:27:05.830Z,69.70
2022-12-25T23:32:09.432Z,74.18
2022-12-25T23:37:12.571Z,67.82
2022-12-25T23:42:16.495Z,64.13
2022-12-25T23:47:19.524Z,61.67
2022-12-25T23:52:22.134Z,62.58
2022-12-25T23:57:26.137Z,65.73
